sensor_id;sensor_type;location;lat;lon;timestamp;P1;durP1;ratioP1;P2;durP2;ratioP2
34521;SDS011;25561;48.888;8.736;2023-03-20T06:49:53;8.18;;;4.25;;
34521;SDS011;25561;48.888;8.736;2023-03-20T06:52:55;7.38;;;4.80;;
34521;SDS011;25561;48.888;8.736;2023-03-20T06:55:57;10.55;;;5.13;;
34521;SDS011;25561;48.888;8.736;2023-03-20T06:58:59;6.65;;;4.45;;
34521;SDS011;25561;48.888;8.736;2023-03-20T07:02:02;7.85;;;4.82;;
34521;SDS011;25561;48.888;8.736;2023-03-20T07:05:05;4.32;;;3.45;;
34521;SDS011;25561;48.888;8.736;2023-03-20T07:08:12;6.32;;;3.97;;
34521;SDS011;25561;48.888;8.736;2023-03-20T07:14:24;5.10;;;3.65;;
34521;SDS011;25561;48.888;8.736;2023-03-20T07:17:35;6.82;;;4.43;;
34521;SDS011;25561;48.888;8.736;2023-03-20T07:20:42;7.30;;;3.33;;
34521;SDS011;25561;48.888;8.736;2023-03-20T07:23:49;5.50;;;3.55;;
34521;SDS011;25561;48.888;8.736;2023-03-20T07:30:06;5.05;;;3.80;;
34521;SDS011;25561;48.888;8.736;2023-03-20T07:33:14;5.90;;;4.00;;
34521;SDS011;25561;48.888;8.736;2023-03-20T07:36:22;8.27;;;3.97;;
34521;SDS011;25561;48.888;8.736;2023-03-20T07:39:43;5.50;;;4.03;;
34521;SDS011;25561;48.888;8.736;2023-03-20T07:42:50;6.90;;;3.95;;
34521;SDS011;25561;48.888;8.736;2023-03-20T07:45:56;7.00;;;4.60;;
34521;SDS011;25561;48.888;8.736;2023-03-20T07:49:05;6.95;;;4.40;;
34521;SDS011;25561;48.888;8.736;2023-03-20T07:52:16;9.77;;;6.10;;
34521;SDS011;25561;48.888;8.736;2023-03-20T07:55:20;10.95;;;5.85;;
34521;SDS011;25561;48.888;8.736;2023-03-20T07:58:24;11.63;;;7.18;;
34521;SDS011;25561;48.888;8.736;2023-03-20T08:01:30;11.38;;;6.40;;
34521;SDS011;25561;48.888;8.736;2023-03-20T08:04:32;10.70;;;6.45;;
34521;SDS011;25561;48.888;8.736;2023-03-20T08:07:34;10.35;;;6.13;;
34521;SDS011;25561;48.888;8.736;2023-03-20T08:10:36;8.95;;;5.90;;
34521;SDS011;25561;48.888;8.736;2023-03-20T08:13:38;10.35;;;5.55;;
34521;SDS011;25561;48.888;8.736;2023-03-20T08:16:40;6.72;;;4.22;;
34521;SDS011;25561;48.888;8.736;2023-03-20T08:19:42;6.95;;;4.68;;
34521;SDS011;25561;48.888;8.736;2023-03-20T08:22:44;7.60;;;4.28;;
34521;SDS011;25561;48.888;8.736;2023-03-20T08:25:49;7.53;;;3.85;;
34521;SDS011;25561;48.888;8.736;2023-03-20T08:28:52;6.22;;;4.25;;
34521;SDS011;25561;48.888;8.736;2023-03-20T08:31:54;5.40;;;3.50;;
34521;SDS011;25561;48.888;8.736;2023-03-20T08:34:56;7.28;;;4.30;;
34521;SDS011;25561;48.888;8.736;2023-03-20T08:37:58;5.05;;;3.70;;
34521;SDS011;25561;48.888;8.736;2023-03-20T08:41:01;6.57;;;4.32;;
34521;SDS011;25561;48.888;8.736;2023-03-20T08:44:04;6.65;;;3.88;;
34521;SDS011;25561;48.888;8.736;2023-03-20T08:47:06;4.25;;;3.10;;
34521;SDS011;25561;48.888;8.736;2023-03-20T08:50:12;8.02;;;4.38;;
34521;SDS011;25561;48.888;8.736;2023-03-20T08:53:14;6.88;;;3.97;;
34521;SDS011;25561;48.888;8.736;2023-03-20T08:56:17;6.70;;;4.70;;
34521;SDS011;25561;48.888;8.736;2023-03-20T08:59:20;8.43;;;4.50;;
34521;SDS011;25561;48.888;8.736;2023-03-20T09:02:23;6.78;;;4.00;;
34521;SDS011;25561;48.888;8.736;2023-03-20T09:05:29;8.05;;;4.43;;
34521;SDS011;25561;48.888;8.736;2023-03-20T09:08:34;6.57;;;3.63;;
34521;SDS011;25561;48.888;8.736;2023-03-20T09:11:37;8.77;;;4.05;;
34521;SDS011;25561;48.888;8.736;2023-03-20T09:14:43;7.80;;;4.03;;
34521;SDS011;25561;48.888;8.736;2023-03-20T09:17:46;10.40;;;3.95;;
34521;SDS011;25561;48.888;8.736;2023-03-20T09:20:48;5.93;;;3.58;;
34521;SDS011;25561;48.888;8.736;2023-03-20T09:23:52;5.72;;;3.90;;
34521;SDS011;25561;48.888;8.736;2023-03-20T09:26:54;5.18;;;3.17;;
34521;SDS011;25561;48.888;8.736;2023-03-20T09:30:08;6.15;;;3.80;;
34521;SDS011;25561;48.888;8.736;2023-03-20T09:33:10;6.43;;;3.63;;
34521;SDS011;25561;48.888;8.736;2023-03-20T09:36:14;6.22;;;3.40;;
34521;SDS011;25561;48.888;8.736;2023-03-20T09:39:17;6.28;;;3.75;;
34521;SDS011;25561;48.888;8.736;2023-03-20T09:42:29;4.97;;;3.50;;
34521;SDS011;25561;48.888;8.736;2023-03-20T09:52:15;7.38;;;4.45;;
34521;SDS011;25561;48.888;8.736;2023-03-20T09:55:33;10.55;;;3.90;;
34521;SDS011;25561;48.888;8.736;2023-03-20T09:58:38;6.90;;;4.47;;
34521;SDS011;25561;48.888;8.736;2023-03-20T10:05:24;7.68;;;4.32;;
34521;SDS011;25561;48.888;8.736;2023-03-20T10:08:28;6.32;;;4.07;;
34521;SDS011;25561;48.888;8.736;2023-03-20T10:18:24;7.90;;;4.25;;
34521;SDS011;25561;48.888;8.736;2023-03-20T10:21:51;8.60;;;4.35;;
34521;SDS011;25561;48.888;8.736;2023-03-20T10:28:16;7.60;;;5.00;;
34521;SDS011;25561;48.888;8.736;2023-03-20T10:34:54;6.30;;;3.70;;
34521;SDS011;25561;48.888;8.736;2023-03-20T10:38:08;6.32;;;3.80;;
34521;SDS011;25561;48.888;8.736;2023-03-20T10:41:18;7.20;;;3.80;;
34521;SDS011;25561;48.888;8.736;2023-03-20T10:44:32;5.90;;;3.83;;
34521;SDS011;25561;48.888;8.736;2023-03-20T10:47:40;6.82;;;4.07;;
34521;SDS011;25561;48.888;8.736;2023-03-20T10:50:46;6.45;;;4.15;;
34521;SDS011;25561;48.888;8.736;2023-03-20T10:53:57;5.43;;;3.80;;
34521;SDS011;25561;48.888;8.736;2023-03-20T10:57:04;6.72;;;4.38;;
34521;SDS011;25561;48.888;8.736;2023-03-20T11:00:22;7.20;;;4.63;;
34521;SDS011;25561;48.888;8.736;2023-03-20T11:03:27;5.25;;;3.97;;
34521;SDS011;25561;48.888;8.736;2023-03-20T11:06:31;5.65;;;3.67;;
34521;SDS011;25561;48.888;8.736;2023-03-20T11:09:40;6.75;;;3.85;;
34521;SDS011;25561;48.888;8.736;2023-03-20T11:12:44;7.10;;;4.50;;
34521;SDS011;25561;48.888;8.736;2023-03-20T11:15:50;8.18;;;2.92;;
34521;SDS011;25561;48.888;8.736;2023-03-20T11:18:54;8.45;;;4.20;;
34521;SDS011;25561;48.888;8.736;2023-03-20T11:21:57;10.45;;;4.15;;
34521;SDS011;25561;48.888;8.736;2023-03-20T11:25:02;5.43;;;3.20;;
34521;SDS011;25561;48.888;8.736;2023-03-20T11:31:40;4.75;;;3.00;;
34521;SDS011;25561;48.888;8.736;2023-03-20T11:34:42;10.63;;;3.53;;
34521;SDS011;25561;48.888;8.736;2023-03-20T11:37:46;4.35;;;3.10;;
34521;SDS011;25561;48.888;8.736;2023-03-20T11:40:50;5.07;;;3.10;;
34521;SDS011;25561;48.888;8.736;2023-03-20T11:43:53;8.20;;;3.28;;
34521;SDS011;25561;48.888;8.736;2023-03-20T11:50:00;6.55;;;2.92;;
34521;SDS011;25561;48.888;8.736;2023-03-20T11:56:33;6.30;;;3.35;;
34521;SDS011;25561;48.888;8.736;2023-03-20T11:59:35;6.53;;;2.88;;
34521;SDS011;25561;48.888;8.736;2023-03-20T12:02:41;7.20;;;3.78;;
34521;SDS011;25561;48.888;8.736;2023-03-20T12:05:45;7.40;;;3.63;;
34521;SDS011;25561;48.888;8.736;2023-03-20T12:08:49;6.28;;;3.30;;
34521;SDS011;25561;48.888;8.736;2023-03-20T12:15:34;4.40;;;2.90;;
34521;SDS011;25561;48.888;8.736;2023-03-20T12:18:46;5.90;;;3.15;;
34521;SDS011;25561;48.888;8.736;2023-03-20T12:21:54;8.70;;;3.28;;
34521;SDS011;25561;48.888;8.736;2023-03-20T12:25:27;5.32;;;2.88;;
34521;SDS011;25561;48.888;8.736;2023-03-20T12:29:01;3.88;;;2.55;;
34521;SDS011;25561;48.888;8.736;2023-03-20T12:32:29;6.55;;;2.63;;
34521;SDS011;25561;48.888;8.736;2023-03-20T12:35:40;3.20;;;2.35;;
34521;SDS011;25561;48.888;8.736;2023-03-20T12:38:47;5.05;;;2.40;;
34521;SDS011;25561;48.888;8.736;2023-03-20T12:45:38;3.67;;;1.92;;
34521;SDS011;25561;48.888;8.736;2023-03-20T12:52:05;4.07;;;2.50;;
34521;SDS011;25561;48.888;8.736;2023-03-20T12:55:28;3.53;;;2.45;;
34521;SDS011;25561;48.888;8.736;2023-03-20T12:59:05;4.15;;;2.65;;
34521;SDS011;25561;48.888;8.736;2023-03-20T13:02:33;4.20;;;2.63;;
34521;SDS011;25561;48.888;8.736;2023-03-20T13:16:44;7.95;;;3.70;;
34521;SDS011;25561;48.888;8.736;2023-03-20T13:23:50;5.75;;;3.08;;
34521;SDS011;25561;48.888;8.736;2023-03-20T13:30:21;6.57;;;3.40;;
34521;SDS011;25561;48.888;8.736;2023-03-20T13:37:02;5.65;;;2.95;;
34521;SDS011;25561;48.888;8.736;2023-03-20T13:40:30;6.05;;;3.45;;
34521;SDS011;25561;48.888;8.736;2023-03-20T13:47:02;8.38;;;3.38;;
34521;SDS011;25561;48.888;8.736;2023-03-20T13:50:30;4.75;;;3.22;;
34521;SDS011;25561;48.888;8.736;2023-03-20T13:57:40;6.53;;;3.33;;
34521;SDS011;25561;48.888;8.736;2023-03-20T14:01:10;6.60;;;3.47;;
34521;SDS011;25561;48.888;8.736;2023-03-20T14:04:35;10.40;;;4.57;;
34521;SDS011;25561;48.888;8.736;2023-03-20T14:07:38;10.65;;;3.83;;
34521;SDS011;25561;48.888;8.736;2023-03-20T14:10:44;5.30;;;3.65;;
34521;SDS011;25561;48.888;8.736;2023-03-20T14:14:03;8.10;;;4.30;;
34521;SDS011;25561;48.888;8.736;2023-03-20T14:17:37;7.38;;;4.50;;
34521;SDS011;25561;48.888;8.736;2023-03-20T14:20:50;7.00;;;3.70;;
34521;SDS011;25561;48.888;8.736;2023-03-20T14:23:56;7.93;;;3.90;;
34521;SDS011;25561;48.888;8.736;2023-03-20T14:27:02;6.03;;;3.70;;
34521;SDS011;25561;48.888;8.736;2023-03-20T14:30:35;6.30;;;3.67;;
34521;SDS011;25561;48.888;8.736;2023-03-20T14:33:41;9.27;;;3.47;;
34521;SDS011;25561;48.888;8.736;2023-03-20T14:36:54;7.90;;;3.50;;
34521;SDS011;25561;48.888;8.736;2023-03-20T14:40:17;7.80;;;4.15;;
34521;SDS011;25561;48.888;8.736;2023-03-20T14:47:32;5.82;;;3.63;;
34521;SDS011;25561;48.888;8.736;2023-03-20T14:57:32;6.60;;;3.67;;
34521;SDS011;25561;48.888;8.736;2023-03-20T15:00:54;5.85;;;3.58;;
34521;SDS011;25561;48.888;8.736;2023-03-20T15:04:04;6.13;;;3.53;;
34521;SDS011;25561;48.888;8.736;2023-03-20T15:07:27;8.70;;;3.38;;
34521;SDS011;25561;48.888;8.736;2023-03-20T15:10:33;9.37;;;3.83;;
34521;SDS011;25561;48.888;8.736;2023-03-20T15:13:37;5.03;;;3.03;;
34521;SDS011;25561;48.888;8.736;2023-03-20T15:16:41;8.60;;;3.70;;
34521;SDS011;25561;48.888;8.736;2023-03-20T15:19:45;4.45;;;2.88;;
34521;SDS011;25561;48.888;8.736;2023-03-20T15:22:48;6.80;;;3.20;;
34521;SDS011;25561;48.888;8.736;2023-03-20T15:25:50;6.00;;;3.33;;
34521;SDS011;25561;48.888;8.736;2023-03-20T15:28:58;11.13;;;3.40;;
34521;SDS011;25561;48.888;8.736;2023-03-20T15:32:12;9.00;;;3.58;;
34521;SDS011;25561;48.888;8.736;2023-03-20T15:35:16;8.50;;;3.22;;
34521;SDS011;25561;48.888;8.736;2023-03-20T15:38:21;7.25;;;3.70;;
34521;SDS011;25561;48.888;8.736;2023-03-20T15:41:29;5.68;;;3.30;;
34521;SDS011;25561;48.888;8.736;2023-03-20T15:44:38;6.25;;;3.40;;
34521;SDS011;25561;48.888;8.736;2023-03-20T15:47:41;13.07;;;4.00;;
34521;SDS011;25561;48.888;8.736;2023-03-20T15:50:44;9.40;;;3.17;;
34521;SDS011;25561;48.888;8.736;2023-03-20T15:53:52;7.50;;;3.60;;
34521;SDS011;25561;48.888;8.736;2023-03-20T15:56:55;7.57;;;3.83;;
34521;SDS011;25561;48.888;8.736;2023-03-20T16:00:01;9.00;;;3.00;;
34521;SDS011;25561;48.888;8.736;2023-03-20T16:03:09;5.88;;;3.13;;
34521;SDS011;25561;48.888;8.736;2023-03-20T16:06:15;5.25;;;2.78;;
34521;SDS011;25561;48.888;8.736;2023-03-20T16:09:22;5.47;;;3.00;;
34521;SDS011;25561;48.888;8.736;2023-03-20T16:12:25;5.85;;;2.88;;
34521;SDS011;25561;48.888;8.736;2023-03-20T16:15:28;4.70;;;2.85;;
34521;SDS011;25561;48.888;8.736;2023-03-20T16:18:34;4.55;;;2.83;;
34521;SDS011;25561;48.888;8.736;2023-03-20T16:21:38;3.97;;;2.38;;
34521;SDS011;25561;48.888;8.736;2023-03-20T16:24:45;4.88;;;2.72;;
34521;SDS011;25561;48.888;8.736;2023-03-20T16:31:05;6.63;;;2.60;;
34521;SDS011;25561;48.888;8.736;2023-03-20T16:34:19;4.65;;;2.53;;
34521;SDS011;25561;48.888;8.736;2023-03-20T16:40:35;7.00;;;2.83;;
34521;SDS011;25561;48.888;8.736;2023-03-20T16:43:37;6.22;;;2.90;;
34521;SDS011;25561;48.888;8.736;2023-03-20T16:46:52;12.00;;;3.47;;
34521;SDS011;25561;48.888;8.736;2023-03-20T16:50:11;5.88;;;2.40;;
34521;SDS011;25561;48.888;8.736;2023-03-20T16:53:18;6.53;;;3.28;;
34521;SDS011;25561;48.888;8.736;2023-03-20T16:56:27;5.53;;;2.67;;
34521;SDS011;25561;48.888;8.736;2023-03-20T16:59:36;4.88;;;2.40;;
